Time;durP1;ratioP1;P1;durP2;ratioP2;P2;SDS_P1;SDS_P2;PMS_P1;PMS_P2;Temp;Humidity;BMP_temperature;BMP_pressure;BME280_temperature;BME280_humidity;BME280_pressure;Samples;Min_cycle;Max_cycle;Signal;HPM_P1;HPM_P2
2021/12/04 00:02:00;;;;;;;3.75;1.40;;;13.70;99.90;;;;;;5090389;28;20031;-88
2021/12/04 00:04:31;;;;;;;4.80;1.50;;;13.70;99.90;;;;;;5091859;28;20488;-91
2021/12/04 00:06:57;;;;;;;4.13;1.30;;;13.60;99.90;;;;;;5090504;28;20028;-90
2021/12/04 00:09:23;;;;;;;12.27;1.67;;;13.60;99.90;;;;;;5083693;28;20017;-91
2021/12/04 00:11:59;;;;;;;6.88;1.48;;;13.60;99.90;;;;;;5084181;28;20039;-88
2021/12/04 00:14:24;;;;;;;8.23;1.85;;;13.60;99.90;;;;;;5091449;28;20479;-89
2021/12/04 00:16:51;;;;;;;3.55;1.23;;;13.60;99.90;;;;;;5091516;28;20054;-89
2021/12/04 00:19:17;;;;;;;4.45;1.35;;;13.60;99.90;;;;;;5090318;28;20039;-88
2021/12/04 00:21:43;;;;;;;5.28;1.30;;;13.60;99.90;;;;;;5091611;28;20012;-89
2021/12/04 00:24:09;;;;;;;3.75;1.40;;;13.60;99.90;;;;;;5091711;28;20028;-91
2021/12/04 00:26:35;;;;;;;5.22;2.08;;;13.60;99.90;;;;;;5090542;28;20035;-93
2021/12/04 00:29:01;;;;;;;5.82;1.23;;;13.60;99.90;;;;;;5091653;28;20032;-91
2021/12/04 00:31:27;;;;;;;6.72;1.58;;;13.60;99.90;;;;;;5091092;28;20042;-90
2021/12/04 00:33:54;;;;;;;3.90;1.20;;;13.60;99.90;;;;;;5089777;28;20072;-89
2021/12/04 00:50:03;;;;;;;2.15;1.23;;;13.60;99.90;;;;;;5095121;28;20035;-90
2021/12/04 00:52:30;;;;;;;6.13;1.40;;;13.70;99.90;;;;;;5093643;28;20051;-93
2021/12/04 00:54:56;;;;;;;4.05;1.70;;;13.70;99.90;;;;;;5094701;28;20028;-92
2021/12/04 00:57:21;;;;;;;4.05;1.60;;;13.70;99.90;;;;;;5093597;28;20373;-92
2021/12/04 00:59:47;;;;;;;4.53;1.80;;;13.70;99.90;;;;;;5094208;28;20482;-88
2021/12/04 01:02:13;;;;;;;5.38;1.55;;;13.70;99.90;;;;;;5093532;28;20404;-89
2021/12/04 01:04:39;;;;;;;5.30;1.40;;;13.70;99.90;;;;;;5092655;28;20476;-89
2021/12/04 01:07:04;;;;;;;4.10;1.42;;;13.60;99.90;;;;;;5094829;28;20480;-90
2021/12/04 01:09:31;;;;;;;3.90;1.23;;;13.70;99.90;;;;;;5093394;28;20028;-94
2021/12/04 01:11:57;;;;;;;4.38;1.40;;;13.60;99.90;;;;;;5094712;28;20032;-90
2021/12/04 01:14:26;;;;;;;2.35;1.35;;;13.70;99.90;;;;;;5094418;28;20020;-91
2021/12/04 01:16:53;;;;;;;6.75;1.65;;;13.70;99.90;;;;;;5091159;28;20032;-89
2021/12/04 01:19:19;;;;;;;4.80;1.40;;;13.70;99.90;;;;;;5094335;28;20073;-89
2021/12/04 01:21:47;;;;;;;4.13;1.50;;;13.70;99.90;;;;;;5094082;28;20545;-88
2021/12/04 01:24:12;;;;;;;2.87;1.30;;;13.70;99.90;;;;;;5093799;28;20016;-89
2021/12/04 01:26:39;;;;;;;2.95;1.23;;;13.70;99.90;;;;;;5094676;28;20024;-90
2021/12/04 01:29:05;;;;;;;6.03;1.30;;;13.70;99.90;;;;;;5094332;28;20077;-90
2021/12/04 01:31:31;;;;;;;3.85;2.05;;;13.70;99.90;;;;;;5093483;28;20032;-90
2021/12/04 01:33:57;;;;;;;4.65;1.30;;;13.70;99.90;;;;;;5094072;28;20020;-91
2021/12/04 01:36:24;;;;;;;7.75;1.40;;;13.70;99.90;;;;;;5092514;28;20036;-89
2021/12/04 01:38:50;;;;;;;5.68;1.50;;;13.60;99.90;;;;;;5093859;28;20024;-91
2021/12/04 01:41:16;;;;;;;4.25;1.17;;;13.70;99.90;;;;;;5093655;28;20027;-91
2021/12/04 01:43:41;;;;;;;11.70;2.00;;;13.70;99.90;;;;;;5093254;28;20028;-92
2021/12/04 01:46:07;;;;;;;4.50;1.33;;;13.70;99.90;;;;;;5092874;28;20065;-91
2021/12/04 01:48:33;;;;;;;7.47;1.73;;;13.70;99.90;;;;;;5093923;28;20468;-92
2021/12/04 01:50:59;;;;;;;8.82;1.52;;;13.60;99.90;;;;;;5093690;28;20028;-92
2021/12/04 01:53:26;;;;;;;10.38;1.80;;;13.60;99.90;;;;;;5093353;28;20020;-95
2021/12/04 01:55:53;;;;;;;6.07;1.30;;;13.60;99.90;;;;;;5093786;28;20119;-91
2021/12/04 01:58:20;;;;;;;3.63;1.70;;;13.70;99.90;;;;;;5093556;28;20448;-89
2021/12/04 02:00:46;;;;;;;8.25;1.40;;;13.70;99.90;;;;;;5093628;28;20090;-89
2021/12/04 02:03:13;;;;;;;5.57;1.40;;;13.70;99.90;;;;;;5093805;28;20393;-91
2021/12/04 02:05:41;;;;;;;4.23;1.10;;;13.70;99.90;;;;;;5093275;28;20028;-91
2021/12/04 02:08:08;;;;;;;3.60;1.08;;;13.70;99.90;;;;;;5093989;28;20099;-91
2021/12/04 02:10:34;;;;;;;4.00;1.20;;;13.70;99.90;;;;;;5092977;28;20078;-91
2021/12/04 02:13:00;;;;;;;6.32;1.23;;;13.70;99.90;;;;;;5093291;28;20028;-92
2021/12/04 02:15:26;;;;;;;3.78;1.40;;;13.70;99.90;;;;;;5093407;28;20545;-92
2021/12/04 02:17:52;;;;;;;2.60;1.30;;;13.70;99.90;;;;;;5092186;28;20111;-91
2021/12/04 02:20:21;;;;;;;4.28;1.70;;;13.60;99.90;;;;;;5093529;28;20103;-91
2021/12/04 02:22:48;;;;;;;4.53;1.55;;;13.60;99.90;;;;;;5086470;28;20020;-94
2021/12/04 02:25:14;;;;;;;6.45;1.65;;;13.60;99.90;;;;;;5074299;28;20470;-91
2021/12/04 02:27:41;;;;;;;7.65;2.05;;;13.60;99.90;;;;;;5080946;28;20477;-89
2021/12/04 02:30:14;;;;;;;2.88;1.52;;;13.60;99.90;;;;;;5083085;28;20020;-92
2021/12/04 02:32:40;;;;;;;6.22;0.88;;;13.60;99.90;;;;;;5093416;28;20153;-90
2021/12/04 02:35:08;;;;;;;1.83;1.10;;;13.60;99.90;;;;;;5091420;28;20024;-91
2021/12/04 02:37:36;;;;;;;4.32;1.60;;;13.60;99.90;;;;;;5092909;28;20077;-91
2021/12/04 02:40:04;;;;;;;2.63;1.38;;;13.60;99.90;;;;;;5092410;28;20035;-90
2021/12/04 02:42:31;;;;;;;3.10;1.30;;;13.60;99.90;;;;;;5091480;28;20055;-90
2021/12/04 02:45:04;;;;;;;4.95;1.30;;;13.60;99.90;;;;;;5092630;28;20012;-92
2021/12/04 02:47:30;;;;;;;9.38;2.55;;;13.60;99.90;;;;;;5091386;28;20074;-93
2021/12/04 02:49:56;;;;;;;5.88;2.50;;;13.70;99.90;;;;;;5083259;28;20074;-90
2021/12/04 02:52:23;;;;;;;4.05;2.08;;;13.60;99.90;;;;;;5072579;28;20502;-94
2021/12/04 02:54:50;;;;;;;5.82;1.50;;;13.60;99.90;;;;;;5072352;28;20100;-91
2021/12/04 02:57:18;;;;;;;9.02;2.70;;;13.60;99.90;;;;;;5072190;28;20063;-95
2021/12/04 02:59:44;;;;;;;1.98;1.40;;;13.60;99.90;;;;;;5079179;28;20028;-92
2021/12/04 03:02:21;;;;;;;7.38;2.67;;;13.60;99.90;;;;;;5091543;28;20085;-90
2021/12/04 03:04:52;;;;;;;1.50;1.10;;;13.60;99.90;;;;;;5091300;28;20048;-92
2021/12/04 03:07:18;;;;;;;4.60;1.58;;;13.60;99.90;;;;;;5090774;28;20500;-93
2021/12/04 03:09:45;;;;;;;2.08;1.30;;;13.50;99.90;;;;;;5092811;28;20020;-89
2021/12/04 03:12:12;;;;;;;4.25;1.80;;;13.50;99.90;;;;;;5092569;28;20373;-93
2021/12/04 03:14:38;;;;;;;5.82;1.73;;;13.60;99.90;;;;;;5087974;28;20053;-90
2021/12/04 03:17:05;;;;;;;1.73;1.50;;;13.60;99.90;;;;;;5072016;28;20024;-94
2021/12/04 03:19:31;;;;;;;5.35;1.50;;;13.50;99.90;;;;;;5075978;28;20027;-88
2021/12/04 03:21:57;;;;;;;3.63;1.38;;;13.40;99.90;;;;;;5091094;28;20047;-88
2021/12/04 03:24:24;;;;;;;4.20;1.30;;;13.40;99.90;;;;;;5089439;28;20024;-89
2021/12/04 03:26:51;;;;;;;3.75;1.15;;;13.40;99.90;;;;;;5074809;28;20036;-91
2021/12/04 03:29:23;;;;;;;7.03;1.80;;;13.40;99.90;;;;;;5092151;28;20452;-91
2021/12/04 03:42:31;;;;;;;6.32;2.03;;;13.30;99.90;;;;;;5091968;28;20016;-92
2021/12/04 03:44:56;;;;;;;5.40;1.58;;;13.30;99.90;;;;;;5090876;28;20056;-91
2021/12/04 03:47:23;;;;;;;5.90;2.35;;;13.30;99.90;;;;;;5090217;28;20093;-92
2021/12/04 03:49:49;;;;;;;3.28;1.80;;;13.30;99.90;;;;;;5090649;28;20544;-89
2021/12/04 03:52:15;;;;;;;4.65;1.50;;;13.20;99.90;;;;;;5092258;28;20476;-90
2021/12/04 03:54:42;;;;;;;4.70;1.90;;;13.20;99.90;;;;;;5091786;28;20039;-91
2021/12/04 03:57:10;;;;;;;3.03;1.52;;;13.20;99.90;;;;;;5091672;28;20024;-88
2021/12/04 03:59:38;;;;;;;8.70;1.77;;;13.20;99.90;;;;;;5090670;28;20028;-91
2021/12/04 04:02:07;;;;;;;3.60;1.60;;;13.20;99.90;;;;;;5089608;28;20024;-89
2021/12/04 04:04:32;;;;;;;;;;;13.20;99.90;;;;;;5091761;28;20024;-91
2021/12/04 04:06:59;;;;;;;7.40;1.77;;;13.20;99.90;;;;;;5091771;28;20010;-88
2021/12/04 04:09:25;;;;;;;4.38;2.10;;;13.20;99.90;;;;;;5090393;28;20024;-93
2021/12/04 04:11:51;;;;;;;6.90;2.00;;;13.20;99.90;;;;;;5090519;28;20539;-91
2021/12/04 04:14:17;;;;;;;8.98;2.53;;;13.20;99.90;;;;;;5091768;28;20108;-92
2021/12/04 04:16:43;;;;;;;4.13;1.83;;;13.20;99.90;;;;;;5095403;28;20031;-91
2021/12/04 04:19:10;;;;;;;5.45;2.15;;;13.20;99.90;;;;;;5095187;28;20085;-92
2021/12/04 04:21:42;;;;;;;8.98;2.47;;;13.10;99.90;;;;;;5095203;28;20492;-93
2021/12/04 04:24:09;;;;;;;6.95;2.10;;;13.20;99.90;;;;;;5094935;28;20031;-91
2021/12/04 04:26:36;;;;;;;9.52;1.83;;;13.10;99.90;;;;;;5075046;28;20048;-90
2021/12/04 04:29:02;;;;;;;6.22;1.52;;;13.00;99.90;;;;;;5080268;28;20036;-91
2021/12/04 04:31:29;;;;;;;10.82;1.52;;;13.00;99.90;;;;;;5095422;28;20024;-89
2021/12/04 04:34:00;;;;;;;8.80;1.38;;;13.00;99.90;;;;;;5095185;28;20038;-91
2021/12/04 05:14:35;;;;;;;16.98;2.00;;;11.80;99.90;;;;;;5099176;28;20404;-88
2021/12/04 05:19:42;;;;;;;18.52;1.60;;;11.60;99.90;;;;;;5094163;28;20115;-87
2021/12/04 05:22:09;;;;;;;12.20;2.40;;;11.60;99.90;;;;;;5087680;28;20025;-88
2021/12/04 05:24:35;;;;;;;13.15;2.05;;;11.60;99.90;;;;;;5074049;28;20024;-86
2021/12/04 05:27:01;;;;;;;14.18;1.70;;;11.50;99.90;;;;;;5086303;28;20042;-86
2021/12/04 05:29:28;;;;;;;11.75;2.00;;;11.10;99.90;;;;;;5093743;28;20051;-87
2021/12/04 05:31:53;;;;;;;22.17;2.38;;;11.20;99.90;;;;;;5082611;28;20036;-89
2021/12/04 05:34:19;;;;;;;9.43;1.83;;;11.20;99.90;;;;;;5079827;28;20063;-92
2021/12/04 05:36:45;;;;;;;18.23;2.50;;;11.00;99.90;;;;;;5072860;28;20550;-89
2021/12/04 05:39:11;;;;;;;23.95;2.20;;;11.10;99.90;;;;;;5092419;28;20052;-92
2021/12/04 05:41:38;;;;;;;25.60;2.25;;;11.00;99.90;;;;;;5094107;28;20496;-92
2021/12/04 05:44:07;;;;;;;20.00;3.53;;;11.10;99.90;;;;;;5093002;28;20479;-89
2021/12/04 05:46:40;;;;;;;14.02;2.20;;;11.10;99.90;;;;;;5083033;28;20033;-88
2021/12/04 05:49:23;;;;;;;23.25;2.80;;;11.00;99.90;;;;;;5074607;28;20029;-90
2021/12/04 05:57:09;;;;;;;21.98;2.50;;;10.80;99.90;;;;;;5093120;28;20549;-90
2021/12/04 05:59:35;;;;;;;45.85;4.28;;;10.80;99.90;;;;;;5074749;28;20135;-90
2021/12/04 06:02:01;;;;;;;49.78;3.38;;;10.80;99.90;;;;;;5076966;28;20512;-90
2021/12/04 06:04:27;;;;;;;18.25;2.80;;;10.80;99.90;;;;;;5093264;28;20040;-86
2021/12/04 06:06:53;;;;;;;31.02;2.65;;;10.80;99.90;;;;;;5091987;28;20036;-85
2021/12/04 06:09:20;;;;;;;22.35;2.75;;;10.80;99.90;;;;;;5093574;28;20020;-86
2021/12/04 06:11:46;;;;;;;28.83;3.28;;;10.70;99.90;;;;;;5093295;28;20089;-85
2021/12/04 06:14:12;;;;;;;29.73;4.18;;;10.60;99.90;;;;;;5087589;28;20024;-86
2021/12/04 06:16:37;;;;;;;31.63;2.88;;;10.60;99.90;;;;;;5072543;28;20032;-88
2021/12/04 06:24:32;;;;;;;22.30;2.88;;;10.60;99.90;;;;;;5072777;28;20098;-90
2021/12/04 06:26:57;;;;;;;30.17;3.35;;;10.50;99.90;;;;;;5072390;28;20443;-90
2021/12/04 06:29:24;;;;;;;30.67;3.80;;;10.60;99.90;;;;;;5072930;28;20051;-89
2021/12/04 06:31:49;;;;;;;31.45;3.40;;;10.50;99.90;;;;;;5072866;28;20029;-87
2021/12/04 06:34:15;;;;;;;27.95;2.85;;;10.50;99.90;;;;;;5072613;28;20025;-88
2021/12/04 06:36:41;;;;;;;34.20;3.03;;;10.50;99.90;;;;;;5072390;28;20089;-87
2021/12/04 06:39:06;;;;;;;26.33;2.78;;;10.50;99.90;;;;;;5072079;28;20131;-86
2021/12/04 06:41:32;;;;;;;24.15;2.60;;;10.50;99.90;;;;;;5076243;28;20193;-84
2021/12/04 06:43:58;;;;;;;32.53;3.10;;;10.40;99.90;;;;;;5086273;28;20128;-85
2021/12/04 06:46:24;;;;;;;25.92;2.40;;;10.30;99.90;;;;;;5092246;28;20086;-86
2021/12/04 06:54:05;;;;;;;30.50;4.03;;;10.20;99.90;;;;;;5079828;28;20024;-85
2021/12/04 06:56:34;;;;;;;38.38;3.38;;;10.30;99.90;;;;;;5091957;28;20028;-86
2021/12/04 06:59:05;;;;;;;28.55;3.25;;;10.30;99.90;;;;;;5083733;28;20030;-85
2021/12/04 07:01:31;;;;;;;33.10;3.55;;;10.30;99.90;;;;;;5077770;28;20129;-87
2021/12/04 07:03:57;;;;;;;33.92;3.33;;;10.30;99.90;;;;;;5080708;28;20027;-85
2021/12/04 07:06:22;;;;;;;34.63;3.40;;;10.30;99.90;;;;;;5079647;28;20084;-86
2021/12/04 07:08:48;;;;;;;33.78;3.85;;;10.30;99.90;;;;;;5079416;28;20777;-86
2021/12/04 07:11:14;;;;;;;30.08;3.72;;;10.40;99.90;;;;;;5083529;28;20040;-86
2021/12/04 07:13:39;;;;;;;27.33;3.20;;;10.50;99.90;;;;;;5080667;28;20078;-87
2021/12/04 07:16:07;;;;;;;31.13;3.63;;;10.50;99.90;;;;;;5079497;28;20104;-85
2021/12/04 07:18:35;;;;;;;27.02;3.47;;;10.40;99.90;;;;;;5082043;28;20045;-86
2021/12/04 07:21:02;;;;;;;26.75;3.60;;;10.50;99.90;;;;;;5083120;28;20569;-84
2021/12/04 07:23:28;;;;;;;30.42;3.13;;;10.50;99.90;;;;;;5079910;28;20021;-86
2021/12/04 07:25:54;;;;;;;33.92;3.40;;;10.40;99.90;;;;;;5082645;28;20032;-86
2021/12/04 07:28:20;;;;;;;25.98;2.88;;;10.40;99.90;;;;;;5079554;28;20035;-85
2021/12/04 07:30:46;;;;;;;33.10;3.53;;;10.40;99.90;;;;;;5080783;28;20024;-85
2021/12/04 07:33:12;;;;;;;35.50;3.30;;;10.40;99.90;;;;;;5078926;28;20024;-86
2021/12/04 07:35:37;;;;;;;24.55;2.95;;;10.40;99.90;;;;;;5079242;28;20494;-86
2021/12/04 07:38:03;;;;;;;30.50;3.25;;;10.40;99.90;;;;;;5081297;28;20023;-86
2021/12/04 07:40:29;;;;;;;29.33;3.67;;;10.30;99.90;;;;;;5079917;28;20028;-87
2021/12/04 07:42:55;;;;;;;33.05;3.38;;;10.30;99.90;;;;;;5077257;28;20118;-87
2021/12/04 07:45:20;;;;;;;25.23;3.70;;;10.30;99.90;;;;;;5077362;28;20412;-87
2021/12/04 07:47:46;;;;;;;25.23;3.10;;;10.40;99.90;;;;;;5089666;28;20051;-87
2021/12/04 07:50:13;;;;;;;27.90;2.88;;;10.30;99.90;;;;;;5091291;28;20020;-86
2021/12/04 07:52:39;;;;;;;26.85;3.30;;;10.30;99.90;;;;;;5094825;28;20028;-87
2021/12/04 07:55:07;;;;;;;28.85;3.70;;;10.30;99.90;;;;;;5095733;28;20384;-86
2021/12/04 07:57:33;;;;;;;31.80;3.60;;;10.30;99.90;;;;;;5095709;28;20016;-85
2021/12/04 07:59:59;;;;;;;25.67;2.42;;;10.30;99.90;;;;;;5095669;28;20526;-86
2021/12/04 08:02:25;;;;;;;28.73;3.25;;;10.00;99.90;;;;;;5095819;28;20024;-87
2021/12/04 08:04:51;;;;;;;22.92;3.20;;;9.90;99.90;;;;;;5095622;28;20510;-85
2021/12/04 08:07:16;;;;;;;24.77;3.33;;;9.90;99.90;;;;;;5095992;28;20050;-86
2021/12/04 08:09:53;;;;;;;17.52;3.05;;;9.90;99.90;;;;;;5097168;28;20024;-93
2021/12/04 08:12:19;;;;;;;18.80;2.50;;;10.00;99.90;;;;;;5105809;28;20032;-92
2021/12/04 08:14:46;;;;;;;22.95;2.85;;;10.10;99.90;;;;;;5110160;28;20082;-90
2021/12/04 08:17:28;;;;;;;;;;;;;;;;;;;;;
2021/12/04 08:19:57;;;;;;;17.90;2.53;;;10.10;99.90;;;;;;5114345;28;20051;-90
2021/12/04 08:25:20;;;;;;;21.15;2.40;;;10.10;99.90;;;;;;5113105;28;20310;-91
2021/12/04 08:27:50;;;;;;;23.75;2.55;;;10.10;99.90;;;;;;5109711;28;20036;-89
2021/12/04 08:30:24;;;;;;;23.73;2.85;;;9.90;99.90;;;;;;5085061;28;20024;-92
2021/12/04 08:32:57;;;;;;;20.02;2.53;;;10.00;99.90;;;;;;5094257;28;20028;-90
2021/12/04 08:36:01;;;;;;;33.23;2.87;;;10.00;99.90;;;;;;5106892;28;20028;-93
2021/12/04 08:38:38;;;;;;;;;;;;;;;;;;;;;
2021/12/04 08:41:16;;;;;;;30.35;3.53;;;10.10;99.90;;;;;;5107667;28;20096;-93
2021/12/04 08:43:47;;;;;;;19.73;2.88;;;10.10;99.90;;;;;;5112180;28;20024;-89
2021/12/04 08:46:31;;;;;;;28.35;3.25;;;10.10;99.90;;;;;;5113231;28;20068;-89
2021/12/04 08:49:00;;;;;;;18.40;2.50;;;10.10;99.90;;;;;;5106160;28;20004;-90
2021/12/04 08:51:34;;;;;;;;;;;10.10;99.90;;;;;;5100461;28;20028;-89
2021/12/04 08:54:33;;;;;;;;;;;;;;;;;;;;;
2021/12/04 08:57:00;;;;;;;21.50;2.50;;;10.10;99.90;;;;;;5087193;28;20083;-90
2021/12/04 08:59:48;;;;;;;29.50;2.92;;;10.20;99.90;;;;;;5093362;28;20036;-89
2021/12/04 09:02:39;;;;;;;20.20;2.55;;;10.20;99.90;;;;;;5096469;28;20070;-89
2021/12/04 09:05:12;;;;;;;19.23;2.58;;;10.20;99.90;;;;;;5107323;28;20036;-91
2021/12/04 09:07:41;;;;;;;24.25;3.22;;;10.10;99.90;;;;;;5106596;28;20040;-90
2021/12/04 09:10:17;;;;;;;15.25;2.30;;;10.10;99.90;;;;;;5092265;28;20136;-89
2021/12/04 09:12:55;;;;;;;14.77;2.30;;;10.10;99.90;;;;;;5089776;28;20032;-88
2021/12/04 09:15:37;;;;;;;17.13;2.45;;;10.00;99.90;;;;;;5100711;28;20134;-89
2021/12/04 09:18:04;;;;;;;8.50;1.70;;;9.90;99.90;;;;;;5096964;28;20033;-87
2021/12/04 09:20:31;;;;;;;16.40;2.47;;;9.80;99.90;;;;;;5100112;28;20080;-89
2021/12/04 09:23:05;;;;;;;11.98;2.60;;;9.70;99.90;;;;;;5106593;28;20039;-91
2021/12/04 09:25:33;;;;;;;16.55;2.22;;;9.60;99.90;;;;;;5084031;28;20149;-88
2021/12/04 09:28:20;;;;;;;20.20;2.30;;;9.60;99.90;;;;;;5110666;28;20127;-94
2021/12/04 10:22:57;;;;;;;;;;;;;;;;;;;;;
2021/12/04 10:34:25;;;;;;;;;;;7.40;99.90;;;;;;5117262;28;20081;-93
2021/12/04 10:37:18;;;;;;;20.33;8.05;;;7.50;99.90;;;;;;5117792;28;19995;-94
2021/12/04 11:47:53;;;;;;;11.15;2.20;;;8.20;99.90;;;;;;4920555;29;20515;-93
2021/12/04 12:01:21;;;;;;;15.43;2.50;;;7.80;99.90;;;;;;4861863;29;20143;-90
2021/12/04 14:08:37;;;;;;;6.40;1.17;;;9.20;99.30;;;;;;5827924;24;20129;-93
2021/12/04 14:18:42;;;;;;;;;;;;;;;;;;;;;
2021/12/04 15:06:44;;;;;;;11.02;2.53;;;7.10;99.90;;;;;;6188573;22;1370521;-92
2021/12/04 15:10:11;;;;;;;12.63;5.55;;;7.70;99.90;;;;;;6199183;23;20016;-91
2021/12/04 15:17:10;;;;;;;;;;;;;;;;;;;;;
2021/12/04 15:34:25;;;;;;;;;;;;;;;;;;;;;
2021/12/04 16:05:43;;;;;;;21.98;3.65;;;7.60;99.90;;;;;;5747781;24;20070;-90
2021/12/04 16:12:23;;;;;;;10.50;3.17;;;7.60;99.90;;;;;;5759351;24;20370;-89
2021/12/04 16:14:56;;;;;;;17.38;3.88;;;7.60;99.90;;;;;;5737015;25;20019;-94
2021/12/04 16:17:52;;;;;;;;;;;;;;;;;;;;;
2021/12/04 16:20:20;;;;;;;21.10;4.78;;;7.60;99.90;;;;;;5837957;24;20089;-91
2021/12/04 16:22:48;;;;;;;;;;;7.60;99.90;;;;;;5872502;24;20443;-92
2021/12/04 16:25:26;;;;;;;19.67;4.10;;;7.60;99.90;;;;;;6089098;23;19901;-90
2021/12/04 16:38:07;;;;;;;17.45;3.95;;;7.50;99.90;;;;;;6215110;23;20004;-92
2021/12/04 16:40:39;;;;;;;17.35;4.70;;;7.60;99.90;;;;;;6189306;23;20452;-91
2021/12/04 16:43:12;;;;;;;13.02;3.47;;;7.60;99.90;;;;;;6201312;23;20087;-90
2021/12/04 16:45:44;;;;;;;14.77;3.85;;;7.60;99.90;;;;;;6204011;23;20157;-92
2021/12/04 16:48:12;;;;;;;18.48;3.65;;;7.60;99.90;;;;;;6208547;23;20004;-90
2021/12/04 16:56:31;;;;;;;11.88;3.83;;;7.50;99.90;;;;;;6213632;23;20545;-91
2021/12/04 16:59:12;;;;;;;17.05;3.47;;;7.50;99.90;;;;;;6187711;23;20009;-91
2021/12/04 17:01:39;;;;;;;12.95;3.22;;;7.50;99.90;;;;;;6188015;23;20028;-92
2021/12/04 17:04:13;;;;;;;14.80;2.90;;;7.40;99.90;;;;;;6187794;23;20742;-91
2021/12/04 17:07:22;;;;;;;10.63;2.70;;;7.40;99.90;;;;;;6187954;23;20017;-90
2021/12/04 17:10:02;;;;;;;;;;;;;;;;;;;;;
2021/12/04 17:12:32;;;;;;;15.80;3.20;;;7.40;99.90;;;;;;6213557;23;20511;-91
2021/12/04 17:14:57;;;;;;;23.75;3.55;;;7.40;99.90;;;;;;6186998;23;20013;-91
2021/12/04 17:17:35;;;;;;;;;;;;;;;;;;;;;
2021/12/04 17:20:04;;;;;;;12.05;3.40;;;7.40;99.90;;;;;;6214575;23;20084;-91
2021/12/04 17:22:30;;;;;;;23.08;3.67;;;7.40;99.90;;;;;;6188012;23;19997;-91
2021/12/04 17:24:57;;;;;;;13.48;3.40;;;7.40;99.90;;;;;;6185990;23;20036;-89
2021/12/04 17:27:32;;;;;;;21.08;3.75;;;7.50;99.90;;;;;;6188526;23;20007;-92
2021/12/04 17:29:58;;;;;;;16.13;4.45;;;7.60;99.90;;;;;;6188614;23;20028;-90
2021/12/04 17:32:24;;;;;;;11.75;3.28;;;7.60;99.90;;;;;;6188043;23;20384;-91
2021/12/04 17:34:52;;;;;;;14.35;4.25;;;7.50;99.90;;;;;;6187646;23;20009;-90
2021/12/04 17:37:18;;;;;;;7.63;2.42;;;7.20;99.90;;;;;;6187892;23;20005;-90
2021/12/04 17:39:48;;;;;;;13.80;4.68;;;7.10;99.90;;;;;;6187152;23;20016;-89
2021/12/04 17:42:14;;;;;;;7.43;2.00;;;7.00;99.90;;;;;;6186495;23;20055;-89
2021/12/04 17:44:39;;;;;;;16.02;3.08;;;6.80;99.90;;;;;;6187352;23;20005;-90
2021/12/04 17:47:05;;;;;;;10.70;3.28;;;6.70;99.90;;;;;;6187342;23;20019;-90
2021/12/04 17:49:31;;;;;;;5.70;2.20;;;6.70;99.90;;;;;;6187810;23;20000;-90
2021/12/04 17:51:59;;;;;;;9.65;3.85;;;6.70;99.90;;;;;;6186214;23;20004;-91
2021/12/04 17:54:25;;;;;;;8.75;2.80;;;6.70;99.90;;;;;;6187285;23;20009;-91
2021/12/04 17:56:51;;;;;;;9.98;2.40;;;6.70;99.90;;;;;;6187388;23;20389;-90
2021/12/04 17:59:19;;;;;;;15.27;5.13;;;6.60;99.90;;;;;;6188155;23;20104;-91
2021/12/04 18:01:53;;;;;;;10.60;4.97;;;6.60;99.90;;;;;;6187727;23;20456;-90
2021/12/04 18:04:26;;;;;;;15.07;4.15;;;6.60;99.90;;;;;;6188031;23;20341;-90
2021/12/04 18:06:56;;;;;;;12.05;4.10;;;6.60;99.90;;;;;;6187099;23;20023;-89
2021/12/04 18:09:22;;;;;;;12.40;3.65;;;6.50;99.90;;;;;;6188261;23;20027;-90
2021/12/04 18:11:57;;;;;;;13.25;4.40;;;6.40;99.90;;;;;;6187574;23;20008;-90
2021/12/04 18:14:26;;;;;;;12.85;6.03;;;6.50;99.90;;;;;;6187306;23;20028;-91
2021/12/04 18:17:03;;;;;;;16.05;5.57;;;6.50;99.90;;;;;;6187469;23;20401;-93
2021/12/04 18:19:32;;;;;;;23.05;7.25;;;6.50;99.90;;;;;;6187110;23;20004;-91
2021/12/04 18:22:00;;;;;;;11.00;4.03;;;6.40;99.90;;;;;;6187282;23;20456;-92
2021/12/04 18:24:27;;;;;;;12.35;3.90;;;6.50;99.90;;;;;;6187723;23;20004;-91
2021/12/04 18:26:58;;;;;;;11.20;4.78;;;6.50;99.90;;;;;;6213865;23;20001;-91
2021/12/04 18:29:25;;;;;;;16.23;5.72;;;6.60;99.90;;;;;;6213913;23;20436;-91
2021/12/04 18:31:59;;;;;;;11.95;6.20;;;6.60;99.90;;;;;;6213799;23;20062;-91
2021/12/04 18:34:26;;;;;;;19.23;7.10;;;6.60;99.90;;;;;;6187427;23;20088;-90
2021/12/04 18:36:52;;;;;;;24.25;6.85;;;6.50;99.90;;;;;;6187046;23;20107;-91
2021/12/04 18:39:21;;;;;;;18.70;6.45;;;6.50;99.90;;;;;;6187820;23;20340;-90
2021/12/04 18:41:48;;;;;;;;;;;6.40;99.90;;;;;;6187640;23;20424;-90
2021/12/04 18:44:15;;;;;;;23.38;8.40;;;6.50;99.90;;;;;;6214005;23;19900;-89
2021/12/04 18:46:44;;;;;;;22.33;9.43;;;6.50;99.90;;;;;;6186794;23;20224;-92
2021/12/04 18:49:12;;;;;;;;;;;6.40;99.90;;;;;;6187556;23;20005;-90
2021/12/04 18:51:37;;;;;;;20.23;6.03;;;6.40;99.90;;;;;;6185698;23;19900;-90
2021/12/04 18:54:04;;;;;;;26.45;7.57;;;6.30;99.90;;;;;;6186104;23;20285;-90
2021/12/04 18:56:30;;;;;;;27.73;8.23;;;6.40;99.90;;;;;;6186591;23;20440;-90
2021/12/04 18:58:56;;;;;;;31.25;8.85;;;6.30;99.90;;;;;;6186933;23;20032;-90
2021/12/04 19:01:22;;;;;;;15.52;5.78;;;6.40;99.90;;;;;;6187255;23;20008;-89
2021/12/04 19:03:49;;;;;;;23.15;6.00;;;6.30;99.90;;;;;;6213865;23;20000;-89
2021/12/04 19:06:17;;;;;;;16.10;4.90;;;6.20;99.90;;;;;;6187068;23;20009;-90
2021/12/04 19:08:47;;;;;;;20.98;6.47;;;6.30;99.90;;;;;;6186302;23;20348;-90
2021/12/04 19:11:22;;;;;;;23.63;5.85;;;6.20;99.90;;;;;;6187596;23;20008;-91
2021/12/04 19:13:56;;;;;;;18.70;4.00;;;6.20;99.90;;;;;;6187558;23;20435;-91
2021/12/04 19:16:25;;;;;;;17.98;4.95;;;6.30;99.90;;;;;;6186261;23;20013;-92
2021/12/04 19:18:51;;;;;;;18.75;4.90;;;6.30;99.90;;;;;;6186676;23;20553;-91
2021/12/04 19:21:35;;;;;;;20.20;4.75;;;6.20;99.90;;;;;;6187613;23;20009;-91
2021/12/04 19:24:02;;;;;;;22.92;5.40;;;6.20;99.90;;;;;;6222246;23;20000;-91
2021/12/04 19:26:29;;;;;;;19.98;4.90;;;6.20;99.90;;;;;;6194683;23;20055;-89
2021/12/04 19:28:56;;;;;;;14.68;4.57;;;6.20;99.90;;;;;;6187502;23;20005;-89
2021/12/04 19:31:25;;;;;;;22.10;5.20;;;6.40;99.90;;;;;;6187488;23;20005;-90
2021/12/04 19:34:12;;;;;;;17.58;4.35;;;6.20;99.90;;;;;;6187214;23;20005;-90
2021/12/04 19:50:46;;;;;;;18.33;6.25;;;6.10;99.90;;;;;;6215707;23;20471;-90
2021/12/04 19:56:11;;;;;;;14.45;4.50;;;6.10;99.90;;;;;;6215291;23;20013;-90
2021/12/04 19:58:42;;;;;;;16.73;6.20;;;6.20;99.90;;;;;;6188413;23;20009;-90
2021/12/04 20:01:23;;;;;;;15.30;4.63;;;6.20;99.90;;;;;;6188727;23;20019;-90
2021/12/04 20:06:29;;;;;;;13.38;4.85;;;6.20;99.90;;;;;;6216175;23;20036;-90
2021/12/04 20:09:14;;;;;;;21.20;4.68;;;6.20;99.90;;;;;;6188591;23;20012;-90
2021/12/04 20:14:25;;;;;;;23.17;5.00;;;6.10;99.90;;;;;;6215107;23;20031;-90
2021/12/04 20:16:59;;;;;;;17.83;5.55;;;6.10;99.90;;;;;;6188461;23;20325;-89
2021/12/04 20:19:25;;;;;;;19.45;5.72;;;6.10;99.90;;;;;;6188215;23;20054;-90
2021/12/04 20:21:54;;;;;;;15.98;5.65;;;6.30;99.90;;;;;;6188644;23;20099;-91
2021/12/04 20:24:27;;;;;;;10.90;4.00;;;6.10;99.90;;;;;;6188744;23;20004;-89
2021/12/04 20:27:00;;;;;;;14.43;4.65;;;6.20;99.90;;;;;;6188623;23;20088;-88
2021/12/04 21:13:20;;;;;;;20.63;5.70;;;6.40;99.90;;;;;;6185295;23;20095;-92
2021/12/04 21:50:57;;;;;;;15.75;4.22;;;5.90;99.90;;;;;;6184770;23;20012;-90
2021/12/04 21:53:23;;;;;;;18.25;4.35;;;5.90;99.90;;;;;;6159288;23;20437;-89
2021/12/04 21:58:55;;;;;;;19.13;4.20;;;5.90;99.90;;;;;;6185080;23;20007;-92
2021/12/04 22:09:34;;;;;;;13.35;3.15;;;5.80;99.90;;;;;;6215565;23;20039;-89
2021/12/04 22:12:09;;;;;;;12.85;3.50;;;5.80;99.90;;;;;;6188158;23;20004;-90
2021/12/04 22:14:42;;;;;;;11.23;2.97;;;5.80;99.90;;;;;;6187640;23;20123;-89
2021/12/04 23:03:31;;;;;;;6.75;1.80;;;5.50;99.90;;;;;;6214065;23;20004;-89
2021/12/04 23:11:37;;;;;;;4.53;1.85;;;5.50;99.90;;;;;;6184455;23;20028;-89
2021/12/04 23:14:04;;;;;;;3.40;1.45;;;5.60;99.90;;;;;;6157600;23;20005;-89
2021/12/04 23:17:00;;;;;;;6.57;1.92;;;5.60;99.90;;;;;;6158705;23;20445;-88
2021/12/04 23:32:12;;;;;;;6.43;1.48;;;5.70;99.90;;;;;;6159877;23;20468;-90
